Time;durP1;ratioP1;P1;durP2;ratioP2;P2;SDS_P1;SDS_P2;PMS_P1;PMS_P2;Temp;Humidity;BMP_temperature;BMP_pressure;BME280_temperature;BME280_humidity;BME280_pressure;Samples;Min_cycle;Max_cycle;Signal;HPM_P1;HPM_P2
2023/08/01 00:00:08;;;;;;;8.80;5.05;;;17.40;99.90;;;;;;4991778;28;20349;-81
2023/08/01 00:02:35;;;;;;;6.47;4.65;;;17.40;99.90;;;;;;5008131;28;20321;-82
2023/08/01 00:05:02;;;;;;;6.18;4.30;;;17.40;99.90;;;;;;4998060;28;20313;-81
2023/08/01 00:07:29;;;;;;;6.55;4.45;;;17.30;99.90;;;;;;4994093;28;20300;-82
2023/08/01 00:09:56;;;;;;;6.95;4.90;;;17.30;99.90;;;;;;5011641;28;20230;-81
2023/08/01 00:12:24;;;;;;;8.85;5.10;;;17.30;99.90;;;;;;4993684;28;20225;-84
2023/08/01 00:14:51;;;;;;;7.88;4.65;;;17.30;99.90;;;;;;4993762;28;20210;-81
2023/08/01 00:17:18;;;;;;;9.43;4.72;;;17.30;99.90;;;;;;5008363;28;20252;-82
2023/08/01 00:19:45;;;;;;;6.53;4.00;;;17.30;99.90;;;;;;5011660;28;20222;-83
2023/08/01 00:22:12;;;;;;;4.45;3.00;;;17.30;99.90;;;;;;5011780;28;20276;-81
2023/08/01 00:24:38;;;;;;;5.38;3.17;;;17.30;99.90;;;;;;4994124;28;20206;-82
2023/08/01 00:27:07;;;;;;;3.38;3.08;;;17.20;99.90;;;;;;5010752;28;20301;-81
2023/08/01 00:29:34;;;;;;;3.75;2.80;;;17.10;99.90;;;;;;4993565;28;20218;-82
2023/08/01 00:32:01;;;;;;;3.50;2.38;;;17.10;99.90;;;;;;4993802;28;20264;-84
2023/08/01 00:34:28;;;;;;;3.97;2.83;;;17.10;99.90;;;;;;5011547;28;20199;-83
2023/08/01 00:36:55;;;;;;;5.85;2.83;;;16.70;99.90;;;;;;5010298;28;20218;-82
2023/08/01 00:39:22;;;;;;;5.05;3.10;;;16.70;99.90;;;;;;4994673;28;20305;-82
2023/08/01 00:41:48;;;;;;;7.93;2.80;;;16.90;99.90;;;;;;4986770;28;20226;-81
2023/08/01 00:44:15;;;;;;;6.15;2.90;;;16.90;99.90;;;;;;5002913;28;20222;-83
2023/08/01 00:46:42;;;;;;;3.72;3.13;;;16.90;99.90;;;;;;5011991;28;20642;-83
2023/08/01 00:49:10;;;;;;;4.05;2.90;;;16.90;99.90;;;;;;5011553;28;20234;-83
2023/08/01 00:51:39;;;;;;;5.55;3.38;;;17.00;99.90;;;;;;4993592;28;20328;-83
2023/08/01 00:54:06;;;;;;;4.72;2.88;;;16.90;99.90;;;;;;4993672;28;20584;-83
2023/08/01 00:56:33;;;;;;;5.13;3.28;;;16.90;99.90;;;;;;4993014;28;20229;-83
2023/08/01 00:59:00;;;;;;;4.90;3.40;;;16.90;99.90;;;;;;4993265;28;20253;-82
2023/08/01 01:01:28;;;;;;;3.58;2.63;;;16.60;99.90;;;;;;5010700;28;20253;-82
2023/08/01 01:03:55;;;;;;;5.65;3.40;;;16.90;99.90;;;;;;5010648;28;20641;-81
2023/08/01 01:06:38;;;;;;;8.25;3.03;;;16.90;99.90;;;;;;5010717;28;20515;-84
2023/08/01 01:09:17;;;;;;;6.15;3.50;;;16.80;99.90;;;;;;4993738;28;20222;-83
2023/08/01 01:11:44;;;;;;;9.02;3.65;;;16.90;99.90;;;;;;5011242;28;20233;-83
2023/08/01 01:14:11;;;;;;;7.65;3.08;;;16.70;99.90;;;;;;5010825;28;20198;-83
2023/08/01 01:16:38;;;;;;;5.97;3.13;;;16.70;99.90;;;;;;5007126;28;20207;-83
2023/08/01 01:19:08;;;;;;;4.68;3.33;;;16.60;99.90;;;;;;5005445;28;20698;-84
2023/08/01 01:21:37;;;;;;;7.40;3.55;;;16.60;99.90;;;;;;4993150;28;20867;-84
2023/08/01 01:24:07;;;;;;;5.65;3.55;;;16.60;99.90;;;;;;5010897;28;20701;-83
2023/08/01 01:26:35;;;;;;;8.27;3.92;;;16.50;99.90;;;;;;4992993;28;20217;-84
2023/08/01 01:29:05;;;;;;;7.40;3.70;;;16.50;99.90;;;;;;5001921;28;20294;-83
2023/08/01 01:31:34;;;;;;;8.95;4.68;;;16.50;99.90;;;;;;5010259;28;20210;-84
2023/08/01 01:34:01;;;;;;;9.27;4.53;;;16.50;99.90;;;;;;5006700;28;20215;-84
2023/08/01 01:36:29;;;;;;;6.78;4.25;;;16.30;99.90;;;;;;4993085;28;20659;-84
2023/08/01 01:38:56;;;;;;;7.53;4.40;;;16.30;99.90;;;;;;4991133;28;20207;-83
2023/08/01 01:41:23;;;;;;;7.38;4.40;;;16.30;99.90;;;;;;4989130;28;20203;-84
2023/08/01 01:43:50;;;;;;;9.50;4.45;;;16.10;99.90;;;;;;5005087;28;20217;-84
2023/08/01 01:46:17;;;;;;;8.88;4.43;;;16.30;99.90;;;;;;4993172;28;20206;-84
2023/08/01 01:48:43;;;;;;;9.85;4.85;;;16.20;99.90;;;;;;4992372;28;20277;-83
2023/08/01 01:51:10;;;;;;;13.27;4.90;;;15.90;99.90;;;;;;4993071;28;20214;-84
2023/08/01 01:53:37;;;;;;;10.83;5.40;;;16.20;99.90;;;;;;4994498;28;20207;-84
2023/08/01 01:56:04;;;;;;;10.60;5.07;;;16.20;99.90;;;;;;4998134;28;20659;-83
2023/08/01 01:58:31;;;;;;;10.90;5.38;;;15.90;99.90;;;;;;5015933;28;20223;-85
2023/08/01 02:00:58;;;;;;;9.05;4.70;;;;;;;;;;5011494;28;20293;-84
2023/08/01 02:03:25;;;;;;;9.48;5.10;;;16.00;99.90;;;;;;5010824;28;20213;-83
2023/08/01 02:05:52;;;;;;;8.63;4.70;;;16.00;99.90;;;;;;5010615;28;20202;-85
2023/08/01 02:08:19;;;;;;;11.55;4.82;;;15.90;99.90;;;;;;4992059;28;20219;-83
2023/08/01 02:10:46;;;;;;;9.02;5.10;;;15.90;99.90;;;;;;4992553;28;20222;-85
2023/08/01 02:13:13;;;;;;;10.18;4.93;;;15.90;99.90;;;;;;4992134;28;20226;-82
2023/08/01 02:15:39;;;;;;;10.27;5.20;;;15.80;99.90;;;;;;4992037;28;20509;-85
2023/08/01 02:18:06;;;;;;;11.53;5.33;;;15.80;99.90;;;;;;5009582;28;20210;-85
2023/08/01 02:20:33;;;;;;;10.43;5.43;;;15.80;99.90;;;;;;4992110;28;20264;-84
2023/08/01 02:23:00;;;;;;;9.73;5.53;;;15.90;99.90;;;;;;4992565;28;20291;-85
2023/08/01 02:25:27;;;;;;;11.77;5.43;;;15.80;99.90;;;;;;4992592;28;20214;-84
2023/08/01 02:27:54;;;;;;;14.13;6.63;;;15.80;99.90;;;;;;4992512;28;20254;-84
2023/08/01 02:30:21;;;;;;;11.80;6.00;;;15.70;99.90;;;;;;4991626;28;20234;-84
2023/08/01 02:32:48;;;;;;;18.77;6.68;;;15.70;99.90;;;;;;4992684;28;20198;-84
2023/08/01 02:35:18;;;;;;;10.38;6.38;;;15.70;99.90;;;;;;4988060;28;20207;-84
2023/08/01 02:37:52;;;;;;;15.73;6.78;;;15.70;99.90;;;;;;4996398;28;20205;-85
2023/08/01 02:40:20;;;;;;;16.53;6.63;;;15.70;99.90;;;;;;4991943;28;20302;-84
2023/08/01 02:42:47;;;;;;;12.20;7.00;;;15.50;99.90;;;;;;4982043;28;20301;-86
2023/08/01 02:45:13;;;;;;;13.87;6.70;;;15.60;99.90;;;;;;5009783;28;20254;-85
2023/08/01 02:47:40;;;;;;;14.63;6.60;;;15.60;99.90;;;;;;4992164;28;20199;-84
2023/08/01 02:50:08;;;;;;;17.53;6.87;;;15.60;99.90;;;;;;4991939;28;20256;-84
2023/08/01 02:52:34;;;;;;;15.43;6.88;;;15.60;99.90;;;;;;5009927;28;20206;-83
2023/08/01 02:55:01;;;;;;;18.00;8.00;;;15.70;99.90;;;;;;4978845;28;20218;-84
2023/08/01 02:57:28;;;;;;;15.25;6.68;;;15.60;99.90;;;;;;4991687;28;20221;-86
2023/08/01 02:59:55;;;;;;;19.60;7.60;;;15.50;99.90;;;;;;5008521;28;20314;-85
2023/08/01 03:02:22;;;;;;;25.47;8.27;;;15.60;99.90;;;;;;5007324;28;20234;-86
2023/08/01 03:04:49;;;;;;;12.05;7.00;;;15.60;99.90;;;;;;4991782;28;20654;-85
2023/08/01 03:07:16;;;;;;;18.07;7.00;;;15.50;99.90;;;;;;4991665;28;20214;-88
2023/08/01 03:09:43;;;;;;;14.00;7.03;;;15.50;99.90;;;;;;5008828;28;20229;-84
2023/08/01 03:12:10;;;;;;;25.35;7.97;;;15.50;99.90;;;;;;4991718;28;20242;-84
2023/08/01 03:14:37;;;;;;;20.67;7.63;;;15.50;99.90;;;;;;5009180;28;20220;-85
2023/08/01 03:17:03;;;;;;;17.88;6.63;;;15.40;99.90;;;;;;4991928;28;20213;-85
2023/08/01 03:19:30;;;;;;;19.10;7.05;;;15.50;99.90;;;;;;4991977;28;20217;-86
2023/08/01 03:21:57;;;;;;;16.57;7.17;;;15.50;99.90;;;;;;4991951;28;20671;-84
2023/08/01 03:24:24;;;;;;;22.17;7.97;;;15.40;99.90;;;;;;4992686;28;20293;-85
2023/08/01 03:26:51;;;;;;;18.25;8.23;;;15.40;99.90;;;;;;5009772;28;20658;-84
2023/08/01 03:29:18;;;;;;;23.08;8.60;;;15.50;99.90;;;;;;4992622;28;20667;-85
2023/08/01 03:31:45;;;;;;;21.25;8.90;;;15.50;99.90;;;;;;4991207;28;20226;-85
2023/08/01 03:34:12;;;;;;;20.00;9.30;;;15.50;99.90;;;;;;5010426;28;20295;-86
2023/08/01 03:36:39;;;;;;;18.73;8.77;;;15.60;99.90;;;;;;5001354;28;20217;-85
2023/08/01 03:39:09;;;;;;;15.50;8.40;;;15.60;99.90;;;;;;5016232;28;20508;-84
2023/08/01 03:41:39;;;;;;;18.55;7.82;;;15.70;99.90;;;;;;5032955;28;20202;-84
2023/08/01 03:44:06;;;;;;;17.27;7.88;;;15.70;99.90;;;;;;5032864;28;20187;-84
2023/08/01 03:46:33;;;;;;;18.00;7.57;;;15.70;99.90;;;;;;4999231;28;20217;-84
2023/08/01 03:48:59;;;;;;;16.55;9.00;;;15.70;99.90;;;;;;4991234;28;20213;-84
2023/08/01 03:51:26;;;;;;;16.38;7.75;;;15.70;99.90;;;;;;5007526;28;20240;-84
2023/08/01 03:53:53;;;;;;;16.10;7.57;;;15.80;99.90;;;;;;5009277;28;20206;-84
2023/08/01 03:56:39;;;;;;;15.88;7.55;;;15.90;99.90;;;;;;4990915;28;20229;-85
2023/08/01 03:59:07;;;;;;;18.42;6.65;;;15.70;99.90;;;;;;4991201;28;20202;-86
2023/08/01 04:01:33;;;;;;;12.18;6.32;;;15.80;99.90;;;;;;5008520;28;20695;-84
2023/08/01 04:04:00;;;;;;;10.68;5.82;;;15.80;99.90;;;;;;5008500;28;20527;-84
2023/08/01 04:06:27;;;;;;;15.60;5.55;;;15.80;99.90;;;;;;4991258;28;20210;-85
2023/08/01 04:08:56;;;;;;;10.25;5.57;;;15.90;99.90;;;;;;4990500;28;20213;-83
2023/08/01 04:11:23;;;;;;;13.48;5.45;;;15.70;99.90;;;;;;4992116;28;20226;-86
2023/08/01 04:13:50;;;;;;;8.68;4.63;;;15.80;99.90;;;;;;5011952;28;20284;-83
2023/08/01 04:16:16;;;;;;;13.40;4.78;;;15.80;99.90;;;;;;4994571;28;20210;-83
2023/08/01 04:18:43;;;;;;;9.00;4.47;;;15.80;99.90;;;;;;4993915;28;20210;-83
2023/08/01 04:21:13;;;;;;;11.68;4.20;;;15.80;99.90;;;;;;5011606;28;20586;-82
2023/08/01 04:23:40;;;;;;;14.60;4.80;;;15.90;99.90;;;;;;5011250;28;20567;-80
2023/08/01 04:26:07;;;;;;;11.98;5.20;;;15.90;99.90;;;;;;5011732;28;20218;-81
2023/08/01 04:28:34;;;;;;;8.35;4.45;;;15.80;99.90;;;;;;5011603;28;20211;-83
2023/08/01 04:31:01;;;;;;;13.73;5.28;;;15.80;99.90;;;;;;5011550;28;20316;-84
2023/08/01 04:33:28;;;;;;;7.68;4.53;;;15.80;99.90;;;;;;5010015;28;20248;-83
2023/08/01 04:35:55;;;;;;;10.65;5.25;;;15.80;99.90;;;;;;5006136;28;20214;-84
2023/08/01 04:38:22;;;;;;;13.13;5.30;;;15.80;99.90;;;;;;5010866;28;20195;-84
2023/08/01 04:40:49;;;;;;;9.38;5.05;;;15.80;99.90;;;;;;4998397;28;20211;-84
2023/08/01 04:43:16;;;;;;;8.52;4.63;;;15.80;99.90;;;;;;5005614;28;20230;-85
2023/08/01 04:45:43;;;;;;;12.13;4.97;;;15.80;99.90;;;;;;5010012;28;20218;-83
2023/08/01 04:48:09;;;;;;;9.90;5.40;;;15.80;99.90;;;;;;4990174;28;20292;-83
2023/08/01 04:50:36;;;;;;;14.38;5.80;;;15.80;99.90;;;;;;5011838;28;20226;-84
2023/08/01 04:53:03;;;;;;;10.30;5.88;;;15.80;99.90;;;;;;4984459;28;20213;-83
2023/08/01 04:55:30;;;;;;;11.63;5.03;;;15.70;99.90;;;;;;4993400;28;20628;-84
2023/08/01 04:57:57;;;;;;;9.20;4.97;;;15.80;99.90;;;;;;4986551;28;20234;-84
2023/08/01 05:00:24;;;;;;;9.33;5.00;;;15.80;99.90;;;;;;5008147;28;20690;-84
2023/08/01 05:02:51;;;;;;;10.68;4.85;;;15.80;99.90;;;;;;5008675;28;20253;-85
2023/08/01 05:05:18;;;;;;;11.88;5.95;;;15.80;99.90;;;;;;5033820;28;20325;-86
2023/08/01 05:07:48;;;;;;;15.20;5.57;;;15.80;99.90;;;;;;5016047;28;20203;-85
2023/08/01 05:10:15;;;;;;;10.40;5.20;;;15.80;99.90;;;;;;5021699;28;20227;-85
2023/08/01 05:12:43;;;;;;;10.52;5.43;;;15.80;99.90;;;;;;5010680;28;20675;-83
2023/08/01 05:15:10;;;;;;;13.55;5.60;;;15.80;99.90;;;;;;5003041;28;20241;-84
2023/08/01 05:17:37;;;;;;;14.70;5.32;;;15.80;99.90;;;;;;5006426;28;20216;-87
2023/08/01 05:20:08;;;;;;;7.93;5.20;;;15.90;99.90;;;;;;4997971;28;20549;-85
2023/08/01 05:22:48;;;;;;;13.48;5.72;;;16.00;99.90;;;;;;5005545;28;20349;-83
2023/08/01 05:25:16;;;;;;;10.95;5.78;;;16.00;99.90;;;;;;4998356;28;20265;-87
2023/08/01 05:27:46;;;;;;;12.75;5.53;;;16.10;99.90;;;;;;5003718;28;20313;-86
2023/08/01 05:30:14;;;;;;;10.57;5.25;;;16.00;99.90;;;;;;5009727;28;20292;-86
2023/08/01 05:32:43;;;;;;;16.48;6.20;;;16.10;99.90;;;;;;4996123;28;20202;-86
2023/08/01 05:35:10;;;;;;;13.77;5.90;;;16.20;99.90;;;;;;5008066;28;20260;-84
2023/08/01 05:37:40;;;;;;;8.80;5.28;;;16.30;99.90;;;;;;5004743;28;20217;-85
2023/08/01 05:40:07;;;;;;;8.93;5.03;;;16.30;99.90;;;;;;5009794;28;20248;-83
2023/08/01 05:42:34;;;;;;;7.43;5.03;;;16.40;99.90;;;;;;5008814;28;20219;-84
2023/08/01 05:45:01;;;;;;;12.23;5.03;;;16.50;99.90;;;;;;4997835;28;20225;-84
2023/08/01 05:47:28;;;;;;;9.50;4.75;;;16.70;99.90;;;;;;5008660;28;20238;-82
2023/08/01 05:49:55;;;;;;;12.20;4.85;;;16.70;99.90;;;;;;5008476;28;20305;-85
2023/08/01 05:52:22;;;;;;;10.10;4.65;;;16.60;99.90;;;;;;5008790;28;20218;-86
2023/08/01 05:54:57;;;;;;;8.95;4.60;;;16.60;99.90;;;;;;5008911;28;20210;-83
2023/08/01 05:57:24;;;;;;;16.73;5.00;;;16.70;99.90;;;;;;5008387;28;20214;-83
2023/08/01 05:59:52;;;;;;;9.68;4.63;;;16.60;99.90;;;;;;5008662;28;20206;-82
2023/08/01 06:02:20;;;;;;;13.73;5.35;;;16.60;99.90;;;;;;5008714;28;20889;-85
2023/08/01 06:04:48;;;;;;;10.80;4.30;;;16.60;99.90;;;;;;4991933;28;20239;-84
2023/08/01 06:07:22;;;;;;;8.30;4.20;;;16.60;99.90;;;;;;4991173;28;20202;-87
2023/08/01 06:09:55;;;;;;;9.40;4.25;;;16.50;99.90;;;;;;4992653;28;20309;-84
2023/08/01 06:12:22;;;;;;;7.65;4.47;;;16.50;99.90;;;;;;4992156;28;20690;-84
2023/08/01 06:14:54;;;;;;;8.23;4.20;;;16.50;99.90;;;;;;4992364;28;20675;-85
2023/08/01 06:17:21;;;;;;;14.05;4.72;;;16.60;99.90;;;;;;5006919;28;20206;-85
2023/08/01 06:19:49;;;;;;;6.13;4.30;;;16.60;99.90;;;;;;4985964;28;20712;-83
2023/08/01 06:22:16;;;;;;;10.38;5.30;;;16.60;99.90;;;;;;4991538;28;20218;-87
2023/08/01 06:24:43;;;;;;;11.63;4.90;;;16.70;99.90;;;;;;5008488;28;20207;-84
2023/08/01 06:27:10;;;;;;;9.77;5.00;;;16.70;99.90;;;;;;4991865;28;20265;-85
2023/08/01 06:29:37;;;;;;;17.13;5.70;;;16.70;99.90;;;;;;4985574;28;20191;-84
2023/08/01 06:32:05;;;;;;;10.75;4.75;;;16.70;99.90;;;;;;5009434;28;20240;-84
2023/08/01 06:34:32;;;;;;;9.00;5.07;;;16.80;99.90;;;;;;4991598;28;20292;-85
2023/08/01 06:36:59;;;;;;;14.45;5.47;;;16.90;99.90;;;;;;4994848;28;20282;-85
2023/08/01 06:39:26;;;;;;;11.90;5.88;;;17.10;99.90;;;;;;4992482;28;20290;-86
2023/08/01 06:41:52;;;;;;;7.85;4.65;;;17.20;99.90;;;;;;5009316;28;20344;-85
2023/08/01 06:44:19;;;;;;;8.73;3.95;;;17.50;99.90;;;;;;4992031;28;20647;-84
2023/08/01 06:46:46;;;;;;;8.07;3.53;;;17.80;99.90;;;;;;5008276;28;20222;-85
2023/08/01 06:49:13;;;;;;;6.60;3.30;;;18.20;99.90;;;;;;4992205;28;20289;-84
2023/08/01 06:51:41;;;;;;;11.20;3.67;;;18.50;99.90;;;;;;5008453;28;20232;-86
2023/08/01 06:54:08;;;;;;;8.07;4.55;;;19.10;99.90;;;;;;4992157;28;20230;-84
2023/08/01 06:56:35;;;;;;;6.85;3.15;;;19.40;99.90;;;;;;4990911;28;20683;-85
2023/08/01 06:59:02;;;;;;;6.75;3.28;;;19.80;99.90;;;;;;4990066;28;20662;-84
2023/08/01 07:01:29;;;;;;;9.80;3.50;;;20.10;99.90;;;;;;4995340;28;20294;-86
2023/08/01 07:03:56;;;;;;;10.18;3.33;;;20.10;99.90;;;;;;5002665;28;20256;-85
2023/08/01 07:06:24;;;;;;;7.30;3.10;;;20.00;99.90;;;;;;5002534;28;20221;-85
2023/08/01 07:08:51;;;;;;;7.22;3.30;;;20.00;99.90;;;;;;5004156;28;20203;-87
2023/08/01 07:11:19;;;;;;;10.75;3.20;;;19.80;99.90;;;;;;4992554;28;20234;-85
2023/08/01 07:13:45;;;;;;;4.97;2.85;;;19.70;99.90;;;;;;5009300;28;20220;-84
2023/08/01 07:16:12;;;;;;;7.30;2.90;;;19.30;99.90;;;;;;5007560;28;20619;-84
2023/08/01 07:18:39;;;;;;;9.65;3.35;;;19.30;99.90;;;;;;5002718;28;20610;-84
2023/08/01 07:21:06;;;;;;;6.55;2.92;;;19.20;99.90;;;;;;5009069;28;20256;-85
2023/08/01 07:23:35;;;;;;;7.50;3.13;;;19.10;99.90;;;;;;5015693;28;20206;-86
2023/08/01 07:26:02;;;;;;;6.95;3.05;;;19.20;99.90;;;;;;5018583;28;20199;-85
2023/08/01 07:28:29;;;;;;;7.18;2.85;;;19.40;99.90;;;;;;5013241;28;20319;-84
2023/08/01 07:31:05;;;;;;;7.38;2.72;;;19.70;99.90;;;;;;5006907;28;20222;-83
2023/08/01 07:33:34;;;;;;;7.55;2.85;;;20.00;99.90;;;;;;4994646;28;20209;-84
2023/08/01 07:36:01;;;;;;;8.13;2.60;;;20.20;99.90;;;;;;5011188;28;20207;-82
2023/08/01 07:38:28;;;;;;;4.75;2.58;;;20.50;99.90;;;;;;5006029;28;20214;-84
2023/08/01 07:40:55;;;;;;;5.78;2.60;;;;;;;;;;5017239;28;20382;-83
2023/08/01 07:43:23;;;;;;;5.05;2.22;;;21.40;99.90;;;;;;4999457;28;20799;-82
2023/08/01 07:45:54;;;;;;;5.35;2.33;;;21.80;99.90;;;;;;5010881;28;20210;-83
2023/08/01 07:48:21;;;;;;;5.10;2.50;;;22.30;99.90;;;;;;5012284;28;20749;-81
2023/08/01 07:50:48;;;;;;;5.75;2.58;;;22.80;99.90;;;;;;5010734;28;20226;-82
2023/08/01 07:53:15;;;;;;;5.93;2.35;;;23.40;99.90;;;;;;5009175;28;20214;-82
2023/08/01 07:55:42;;;;;;;9.57;2.47;;;;;;;;;;5011407;28;20220;-82
2023/08/01 07:58:09;;;;;;;8.55;2.97;;;23.90;99.90;;;;;;5007518;28;20221;-81
2023/08/01 08:00:36;;;;;;;5.57;2.30;;;24.20;99.90;;;;;;5008946;28;20194;-85
2023/08/01 08:03:05;;;;;;;6.82;2.35;;;24.20;99.90;;;;;;4986772;28;20195;-82
2023/08/01 08:05:38;;;;;;;5.75;2.05;;;24.40;99.90;;;;;;4986959;28;20214;-85
2023/08/01 08:08:05;;;;;;;4.35;1.90;;;24.60;99.90;;;;;;4971228;28;20686;-83
2023/08/01 08:10:32;;;;;;;4.35;2.00;;;24.30;99.90;;;;;;4992619;28;20725;-82
2023/08/01 08:12:59;;;;;;;3.65;2.00;;;24.10;99.90;;;;;;4992873;28;20227;-82
2023/08/01 08:15:26;;;;;;;5.82;2.20;;;23.70;99.90;;;;;;4991041;28;20203;-85
2023/08/01 08:17:53;;;;;;;3.60;1.58;;;23.30;99.90;;;;;;4991152;28;20524;-83
2023/08/01 08:20:20;;;;;;;3.67;1.67;;;23.10;99.90;;;;;;4979525;28;20211;-84
2023/08/01 08:22:47;;;;;;;5.43;1.80;;;22.90;99.90;;;;;;4974840;28;20262;-83
2023/08/01 08:25:14;;;;;;;6.32;1.90;;;22.70;99.90;;;;;;4991434;28;20655;-84
2023/08/01 08:27:41;;;;;;;5.43;2.20;;;22.50;99.90;;;;;;4992547;28;20223;-83
2023/08/01 08:30:09;;;;;;;10.73;2.30;;;22.20;99.90;;;;;;4974666;28;20207;-83
2023/08/01 08:32:36;;;;;;;5.55;2.38;;;21.60;99.90;;;;;;4992375;28;20246;-84
2023/08/01 08:35:04;;;;;;;4.28;1.80;;;21.30;99.90;;;;;;4991575;28;20235;-85
2023/08/01 08:37:31;;;;;;;5.18;2.45;;;21.00;99.90;;;;;;4997506;28;20218;-83
2023/08/01 08:39:58;;;;;;;5.10;2.33;;;20.90;99.90;;;;;;4974756;28;20211;-84
2023/08/01 08:42:25;;;;;;;7.05;2.17;;;20.20;99.90;;;;;;4972448;28;20633;-84
2023/08/01 08:44:56;;;;;;;6.13;2.50;;;20.80;99.90;;;;;;4992091;28;20207;-83
2023/08/01 08:47:27;;;;;;;4.57;2.15;;;21.20;99.90;;;;;;4992111;28;20211;-83
2023/08/01 08:49:57;;;;;;;3.83;2.10;;;21.50;99.90;;;;;;4991336;28;20207;-84
2023/08/01 08:52:25;;;;;;;7.38;2.22;;;21.60;99.90;;;;;;4961870;28;20250;-84
2023/08/01 08:54:53;;;;;;;4.88;2.05;;;21.60;99.90;;;;;;4992907;28;20257;-85
2023/08/01 08:57:21;;;;;;;6.03;2.47;;;21.70;99.90;;;;;;4991701;28;20574;-85
2023/08/01 08:59:49;;;;;;;7.18;2.30;;;21.80;99.90;;;;;;4974768;28;20215;-84
2023/08/01 09:02:18;;;;;;;7.63;2.35;;;21.70;99.90;;;;;;4997459;28;20753;-82
2023/08/01 09:04:45;;;;;;;7.68;2.38;;;21.60;99.90;;;;;;5009931;28;20205;-82
2023/08/01 09:07:15;;;;;;;5.65;2.20;;;21.40;99.90;;;;;;5009779;28;20685;-84
2023/08/01 09:09:42;;;;;;;3.20;2.10;;;21.20;99.90;;;;;;5010972;28;20207;-83
2023/08/01 09:12:09;;;;;;;5.53;2.00;;;21.00;99.90;;;;;;5011180;28;20234;-84
2023/08/01 09:14:36;;;;;;;4.60;2.22;;;21.10;99.90;;;;;;5011742;28;20668;-84
2023/08/01 09:17:10;;;;;;;5.00;1.95;;;21.30;99.90;;;;;;5010406;28;20277;-84
2023/08/01 09:19:37;;;;;;;4.43;1.70;;;21.80;99.90;;;;;;5002885;28;20199;-84
2023/08/01 09:22:13;;;;;;;4.25;2.20;;;22.20;99.90;;;;;;5016960;28;20202;-84
2023/08/01 09:24:51;;;;;;;5.63;1.77;;;22.50;99.90;;;;;;5024672;28;20254;-84
2023/08/01 09:27:21;;;;;;;5.80;1.77;;;22.90;99.90;;;;;;5050715;28;20206;-84
2023/08/01 09:29:48;;;;;;;3.15;1.80;;;22.80;99.90;;;;;;5032921;28;20195;-83
2023/08/01 09:32:15;;;;;;;2.90;1.60;;;23.00;99.90;;;;;;5018379;28;20233;-83
2023/08/01 09:34:43;;;;;;;3.60;1.95;;;23.00;99.90;;;;;;5010622;28;20696;-85
2023/08/01 09:37:09;;;;;;;2.60;1.50;;;22.90;99.90;;;;;;5010869;28;20202;-84
2023/08/01 09:39:36;;;;;;;3.17;1.25;;;23.10;99.90;;;;;;5011085;28;20290;-84
2023/08/01 09:42:03;;;;;;;3.58;1.58;;;23.00;99.90;;;;;;5009351;28;20214;-84
2023/08/01 09:44:30;;;;;;;3.95;1.60;;;23.10;99.90;;;;;;5010109;28;20195;-85
2023/08/01 09:47:05;;;;;;;4.20;1.83;;;22.70;99.90;;;;;;5010350;28;20209;-83
2023/08/01 09:49:31;;;;;;;7.57;2.00;;;22.50;99.90;;;;;;5005087;28;20209;-83
2023/08/01 09:51:59;;;;;;;3.22;1.60;;;22.10;99.90;;;;;;5008691;28;20687;-86
2023/08/01 09:54:26;;;;;;;6.80;1.95;;;21.90;99.90;;;;;;5008702;28;20675;-84
2023/08/01 09:56:54;;;;;;;6.53;1.77;;;22.00;99.90;;;;;;5004634;28;20289;-83
2023/08/01 09:59:22;;;;;;;3.75;1.65;;;22.20;99.90;;;;;;5002670;28;20664;-84
2023/08/01 10:01:51;;;;;;;4.72;1.65;;;22.40;99.90;;;;;;5010141;28;20714;-86
2023/08/01 10:04:27;;;;;;;7.13;1.63;;;22.50;99.90;;;;;;5009959;28;20229;-83
2023/08/01 10:06:58;;;;;;;2.65;1.40;;;22.70;99.90;;;;;;5009783;28;20226;-84
2023/08/01 10:09:26;;;;;;;4.90;1.90;;;22.80;99.90;;;;;;5009836;28;20225;-82
2023/08/01 10:11:57;;;;;;;3.17;1.63;;;22.90;99.90;;;;;;4992376;28;20242;-85
2023/08/01 10:14:25;;;;;;;4.70;1.42;;;23.30;99.90;;;;;;5010253;28;20206;-83
2023/08/01 10:16:53;;;;;;;4.78;1.52;;;23.40;99.90;;;;;;5009991;28;20199;-83
2023/08/01 10:19:21;;;;;;;4.60;1.50;;;23.20;99.90;;;;;;5008626;28;20203;-83
2023/08/01 10:21:49;;;;;;;6.30;1.95;;;22.90;99.90;;;;;;4991396;28;20664;-84
2023/08/01 10:24:17;;;;;;;4.07;1.50;;;22.60;99.90;;;;;;5002406;28;20674;-84
2023/08/01 10:26:47;;;;;;;5.35;1.45;;;22.30;99.90;;;;;;5002601;28;20222;-83
2023/08/01 10:29:14;;;;;;;4.75;1.50;;;22.00;99.90;;;;;;5010037;28;20221;-83
2023/08/01 10:31:51;;;;;;;4.82;1.95;;;21.90;99.90;;;;;;4987998;28;20227;-86
2023/08/01 10:34:24;;;;;;;5.95;1.73;;;21.80;99.90;;;;;;4986294;28;20673;-88
2023/08/01 10:36:55;;;;;;;3.75;1.60;;;21.70;99.90;;;;;;4986083;28;20210;-85
2023/08/01 10:39:24;;;;;;;3.92;1.90;;;21.60;99.90;;;;;;4990475;28;20582;-85
2023/08/01 10:41:59;;;;;;;3.45;1.75;;;21.60;99.90;;;;;;5005099;28;20258;-87
2023/08/01 10:44:26;;;;;;;8.73;1.95;;;21.30;99.90;;;;;;5012342;28;20202;-86
2023/08/01 10:46:59;;;;;;;6.55;1.73;;;21.30;99.90;;;;;;4997400;28;20217;-84
2023/08/01 10:49:37;;;;;;;4.45;1.80;;;21.60;99.90;;;;;;5008817;28;20256;-83
2023/08/01 10:52:17;;;;;;;4.03;1.60;;;21.70;99.90;;;;;;5005924;28;20234;-86
2023/08/01 10:54:45;;;;;;;4.07;1.50;;;21.70;99.90;;;;;;5007913;28;20222;-85
2023/08/01 10:57:18;;;;;;;2.70;1.45;;;21.60;99.90;;;;;;5009066;28;20234;-85
2023/08/01 10:59:45;;;;;;;3.42;1.40;;;21.70;99.90;;;;;;5009208;28;20264;-81
2023/08/01 11:02:19;;;;;;;2.50;1.58;;;21.90;99.90;;;;;;5000817;28;20234;-82
2023/08/01 11:05:04;;;;;;;3.20;1.50;;;22.00;99.90;;;;;;5009551;28;20237;-85
2023/08/01 11:07:32;;;;;;;3.97;1.55;;;22.30;99.90;;;;;;4991579;28;20207;-84
2023/08/01 11:10:13;;;;;;;3.80;1.15;;;22.80;99.90;;;;;;5008119;28;20205;-83
2023/08/01 11:12:42;;;;;;;3.00;1.00;;;23.10;99.90;;;;;;5008649;28;20533;-82
2023/08/01 11:15:13;;;;;;;2.55;1.17;;;23.20;99.90;;;;;;5002902;28;20584;-83
2023/08/01 11:17:46;;;;;;;3.95;1.02;;;23.40;99.90;;;;;;5001692;28;20203;-84
2023/08/01 11:20:13;;;;;;;2.67;1.27;;;23.50;99.90;;;;;;5009197;28;20950;-81
2023/08/01 11:23:00;;;;;;;3.30;1.35;;;23.60;99.90;;;;;;5012284;28;20216;-79
2023/08/01 11:25:36;;;;;;;3.25;1.10;;;23.80;99.90;;;;;;4994153;28;20198;-84
2023/08/01 11:28:07;;;;;;;4.38;1.30;;;23.90;99.90;;;;;;4992835;28;20300;-82
2023/08/01 11:30:34;;;;;;;2.45;1.17;;;23.70;99.90;;;;;;5007171;28;20220;-83
2023/08/01 11:33:04;;;;;;;8.75;1.40;;;23.40;99.90;;;;;;4985030;28;20229;-81
2023/08/01 11:35:31;;;;;;;1.83;1.13;;;23.20;99.90;;;;;;5009849;28;20556;-82
2023/08/01 11:37:58;;;;;;;4.18;1.15;;;23.10;99.90;;;;;;4996935;28;20214;-82
2023/08/01 11:40:25;;;;;;;2.67;1.20;;;23.00;99.90;;;;;;5011234;28;20194;-82
2023/08/01 11:42:56;;;;;;;4.68;1.50;;;23.00;99.90;;;;;;5009292;28;20276;-81
2023/08/01 11:45:24;;;;;;;3.83;1.73;;;23.00;99.90;;;;;;5009158;28;20210;-83
2023/08/01 11:47:50;;;;;;;3.58;1.40;;;22.80;99.90;;;;;;5012589;28;20265;-84
2023/08/01 11:50:25;;;;;;;3.20;1.23;;;22.70;99.90;;;;;;5011691;28;20577;-81
2023/08/01 11:52:52;;;;;;;3.03;1.15;;;22.60;99.90;;;;;;5011634;28;20256;-82
2023/08/01 11:55:27;;;;;;;5.68;1.40;;;22.50;99.90;;;;;;4994837;28;20504;-82
2023/08/01 11:57:58;;;;;;;3.20;1.33;;;22.60;99.90;;;;;;5004539;28;20226;-82
2023/08/01 12:00:27;;;;;;;3.97;1.30;;;22.70;99.90;;;;;;5003229;28;20207;-81
2023/08/01 12:03:13;;;;;;;4.05;1.20;;;22.50;99.90;;;;;;5010885;28;20241;-81
2023/08/01 12:05:41;;;;;;;4.63;1.73;;;22.40;99.90;;;;;;4994155;28;20237;-81
2023/08/01 12:08:12;;;;;;;6.18;1.38;;;22.50;99.90;;;;;;4993204;28;20237;-80
2023/08/01 12:10:42;;;;;;;2.50;1.17;;;22.60;99.90;;;;;;5007476;28;20222;-83
2023/08/01 12:13:23;;;;;;;7.05;1.20;;;22.90;99.90;;;;;;5008161;28;20226;-84
2023/08/01 12:15:51;;;;;;;2.40;1.40;;;23.00;99.90;;;;;;5011956;28;20378;-81
2023/08/01 12:18:29;;;;;;;2.50;1.20;;;22.90;99.90;;;;;;5007792;28;20218;-80
2023/08/01 12:20:59;;;;;;;3.83;1.50;;;22.80;99.90;;;;;;4992140;28;20191;-83
2023/08/01 12:23:26;;;;;;;4.43;1.83;;;22.60;99.90;;;;;;4993305;28;20237;-83
2023/08/01 12:25:53;;;;;;;3.92;1.40;;;22.50;99.90;;;;;;4998977;28;20571;-82
2023/08/01 12:28:19;;;;;;;3.85;1.13;;;22.40;99.90;;;;;;4990440;28;20282;-82
2023/08/01 12:30:46;;;;;;;3.25;1.35;;;22.20;99.90;;;;;;5007380;28;20199;-82
2023/08/01 12:33:14;;;;;;;1.73;1.30;;;22.20;99.90;;;;;;5009986;28;20443;-82
2023/08/01 12:35:41;;;;;;;4.20;1.67;;;22.00;99.90;;;;;;4993964;28;20659;-82
2023/08/01 12:38:09;;;;;;;1.65;1.30;;;21.90;99.90;;;;;;5009793;28;20281;-81
2023/08/01 12:40:36;;;;;;;3.63;1.42;;;21.80;99.90;;;;;;5010199;28;20194;-83
2023/08/01 12:43:03;;;;;;;3.92;1.63;;;21.80;99.90;;;;;;4992604;28;20223;-81
2023/08/01 12:45:30;;;;;;;4.40;1.45;;;21.70;99.90;;;;;;4987272;28;20195;-79
2023/08/01 12:47:57;;;;;;;3.20;1.13;;;21.60;99.90;;;;;;5004132;28;20199;-83
2023/08/01 12:50:24;;;;;;;4.93;1.70;;;21.70;99.90;;;;;;5005626;28;20201;-80